Time;durP1;ratioP1;P1;durP2;ratioP2;P2;SDS_P1;SDS_P2;PMS_P1;PMS_P2;Temp;Humidity;BMP_temperature;BMP_pressure;BME280_temperature;BME280_humidity;BME280_pressure;Samples;Min_cycle;Max_cycle;Signal;HPM_P1;HPM_P2
2024/02/04 00:00:44;;;;;;;;;;;;;;;23.24;31.50;98067.16;5110307;27;20302;-81
2024/02/04 00:03:10;;;;;;;;;;;;;;;22.51;33.98;98072.78;5109164;28;19980;-81
2024/02/04 00:05:36;;;;;;;;;;;;;;;23.54;30.95;98060.59;5109249;28;19988;-81
2024/02/04 00:08:03;;;;;;;;;;;;;;;22.17;33.18;98053.31;5112666;27;20005;-82
2024/02/04 00:10:29;;;;;;;;;;;;;;;22.09;33.35;98063.03;5110197;28;20278;-81
2024/02/04 00:12:55;;;;;;;;;;;;;;;23.73;30.60;98065.41;5109926;28;19931;-81
2024/02/04 00:15:21;;;;;;;;;;;;;;;24.32;29.19;98056.94;5111272;28;19935;-81
2024/02/04 00:17:47;;;;;;;;;;;;;;;24.12;29.41;98036.53;5099608;27;19943;-82
2024/02/04 00:20:13;;;;;;;;;;;;;;;22.83;33.38;98047.88;5100842;27;19920;-81
2024/02/04 00:22:39;;;;;;;;;;;;;;;24.80;28.33;98042.94;5110122;27;20020;-81
2024/02/04 00:25:06;;;;;;;;;;;;;;;23.88;29.50;98044.25;5110176;28;19920;-81
2024/02/04 00:27:32;;;;;;;;;;;;;;;23.70;31.72;98044.63;5104625;28;19920;-81
2024/02/04 00:29:58;;;;;;;;;;;;;;;24.55;28.66;98048.38;5117436;27;19920;-81
2024/02/04 00:32:25;;;;;;;;;;;;;;;23.41;30.30;98032.41;5086390;28;19923;-81
2024/02/04 00:34:52;;;;;;;;;;;;;;;23.12;30.87;98031.38;5106300;27;19954;-82
2024/02/04 00:37:18;;;;;;;;;;;;;;;23.63;29.88;98027.97;5108281;28;19985;-81
2024/02/04 00:39:44;;;;;;;;;;;;;;;24.84;28.03;98028.78;5082541;28;20035;-81
2024/02/04 00:42:10;;;;;;;;;;;;;;;22.96;32.67;98028.47;5102221;27;19919;-82
2024/02/04 00:44:36;;;;;;;;;;;;;;;23.63;29.67;98027.97;5099502;27;20003;-81
2024/02/04 00:47:02;;;;;;;;;;;;;;;23.97;28.99;98022.00;5114024;28;19920;-81
2024/02/04 00:49:29;;;;;;;;;;;;;;;23.03;30.38;98025.53;5105934;27;19969;-81
2024/02/04 00:51:55;;;;;;;;;;;;;;;24.17;29.34;98030.41;5110652;27;20010;-81
2024/02/04 00:54:21;;;;;;;;;;;;;;;24.08;29.12;98025.41;5081194;28;19924;-81
2024/02/04 00:56:47;;;;;;;;;;;;;;;23.47;29.63;98027.91;5101923;28;20384;-81
2024/02/04 00:59:13;;;;;;;;;;;;;;;24.88;27.97;98037.94;5111851;28;20384;-81
2024/02/04 01:01:39;;;;;;;;;;;;;;;23.64;30.80;98025.97;5109822;28;19919;-82
2024/02/04 01:04:05;;;;;;;;;;;;;;;23.42;29.71;98039.63;5111456;28;20292;-81
2024/02/04 01:06:31;;;;;;;;;;;;;;;23.29;30.37;98033.81;5103911;28;19920;-81
2024/02/04 01:08:57;;;;;;;;;;;;;;;23.39;29.91;98012.44;5102879;28;19920;-81
2024/02/04 01:11:23;;;;;;;;;;;;;;;22.45;31.01;97996.16;5099847;28;19924;-81
2024/02/04 01:13:49;;;;;;;;;;;;;;;22.96;31.05;98017.28;5099612;28;19920;-81
2024/02/04 01:16:15;;;;;;;;;;;;;;;22.32;34.80;98017.53;5102076;28;19960;-82
2024/02/04 01:18:41;;;;;;;;;;;;;;;22.66;31.02;98010.59;5097399;28;19926;-81
2024/02/04 01:21:08;;;;;;;;;;;;;;;23.35;29.98;98003.31;5111962;27;20354;-81
2024/02/04 01:23:35;;;;;;;;;;;;;;;24.53;28.47;98006.69;5107327;28;19932;-81
2024/02/04 01:26:01;;;;;;;;;;;;;;;23.98;29.05;98004.78;5101054;28;19916;-81
2024/02/04 01:28:27;;;;;;;;;;;;;;;23.19;30.99;98004.03;5104857;28;20357;-81
2024/02/04 01:30:53;;;;;;;;;;;;;;;24.11;29.01;98006.94;5101645;28;20404;-81
2024/02/04 01:33:19;;;;;;;;;;;;;;;23.40;29.88;97999.22;5099123;28;20369;-81
2024/02/04 01:35:45;;;;;;;;;;;;;;;23.19;30.62;98000.41;5110055;28;19930;-81
2024/02/04 01:38:11;;;;;;;;;;;;;;;23.00;32.79;98009.59;5108975;28;19926;-81
2024/02/04 01:40:37;;;;;;;;;;;;;;;22.33;33.21;98003.13;5104040;28;19920;-81
2024/02/04 01:43:03;;;;;;;;;;;;;;;22.80;31.99;98001.13;5091537;28;19920;-81
2024/02/04 01:45:29;;;;;;;;;;;;;;;22.68;31.86;97996.19;5085855;28;19921;-81
2024/02/04 01:47:55;;;;;;;;;;;;;;;23.38;31.60;97994.06;5085086;28;19928;-81
2024/02/04 01:50:22;;;;;;;;;;;;;;;23.67;31.53;97983.03;5088429;28;20010;-81
2024/02/04 01:52:49;;;;;;;;;;;;;;;24.09;29.64;97975.69;5085474;28;19931;-81
2024/02/04 01:55:15;;;;;;;;;;;;;;;24.60;28.96;97980.44;5086941;28;20388;-80
2024/02/04 01:57:42;;;;;;;;;;;;;;;24.75;28.39;97978.84;5079066;28;19947;-80
2024/02/04 02:00:12;;;;;;;;;;;;;;;25.09;28.02;97973.53;5091806;28;20007;-80
2024/02/04 02:02:39;;;;;;;;;;;;;;;25.60;27.36;97968.88;5084831;28;19930;-80
2024/02/04 02:05:05;;;;;;;;;;;;;;;25.18;28.02;97970.09;5067946;28;19924;-80
2024/02/04 02:07:31;;;;;;;;;;;;;;;24.58;28.18;97975.28;5083342;28;19927;-80
2024/02/04 02:09:57;;;;;;;;;;;;;;;23.60;29.76;97967.16;5091088;28;19923;-80
2024/02/04 02:12:29;;;;;;;;;;;;;;;22.62;30.99;97967.88;5089799;28;20069;-80
2024/02/04 02:15:09;;;;;;;;;;;;;;;22.60;31.81;97973.13;5083790;28;20393;-81
2024/02/04 02:17:49;;;;;;;;;;;;;;;23.18;31.00;97982.03;5081498;28;20000;-80
2024/02/04 02:20:29;;;;;;;;;;;;;;;23.69;29.51;97978.56;5081957;28;19931;-80
2024/02/04 02:23:11;;;;;;;;;;;;;;;22.80;32.23;97975.19;5088107;28;19928;-80
2024/02/04 02:25:37;;;;;;;;;;;;;;;21.97;33.40;97985.31;5082186;28;20393;-80
2024/02/04 02:28:04;;;;;;;;;;;;;;;21.29;34.25;97971.44;5072505;28;19927;-80
2024/02/04 02:30:30;;;;;;;;;;;;;;;21.75;33.11;97972.84;5084530;28;20305;-79
2024/02/04 02:32:56;;;;;;;;;;;;;;;23.65;30.18;97977.88;5088613;28;20381;-79
2024/02/04 02:35:23;;;;;;;;;;;;;;;24.51;28.72;97971.84;5082888;28;20066;-80
2024/02/04 02:37:55;;;;;;;;;;;;;;;22.90;31.72;97968.56;5075857;28;20282;-80
2024/02/04 02:40:21;;;;;;;;;;;;;;;22.18;33.61;97959.03;5086979;28;20399;-79
2024/02/04 02:42:47;;;;;;;;;;;;;;;23.08;30.83;97960.63;5075715;28;19943;-80
2024/02/04 02:45:15;;;;;;;;;;;;;;;22.85;30.94;97955.09;5091263;28;20016;-79
2024/02/04 02:47:42;;;;;;;;;;;;;;;21.90;33.63;97974.22;5085029;28;19927;-80
2024/02/04 02:50:08;;;;;;;;;;;;;;;21.90;32.36;97971.44;5094913;28;19920;-80
2024/02/04 02:52:35;;;;;;;;;;;;;;;21.35;35.24;97975.34;5074355;28;19928;-80
2024/02/04 02:55:01;;;;;;;;;;;;;;;22.07;32.55;97970.38;5077777;28;19924;-79
2024/02/04 02:57:27;;;;;;;;;;;;;;;23.08;31.79;97967.00;5079605;28;19920;-80
2024/02/04 02:59:53;;;;;;;;;;;;;;;22.66;31.91;97981.81;5091259;28;19920;-80
2024/02/04 03:02:19;;;;;;;;;;;;;;;21.63;33.57;97974.19;5088274;28;20003;-80
2024/02/04 03:04:45;;;;;;;;;;;;;;;20.89;34.86;97977.06;5082250;28;19924;-80
2024/02/04 03:07:11;;;;;;;;;;;;;;;20.08;38.32;97994.50;5077381;28;19981;-80
2024/02/04 03:09:37;;;;;;;;;;;;;;;20.45;38.21;98003.78;5085619;28;19926;-80
2024/02/04 03:12:03;;;;;;;;;;;;;;;19.67;40.65;98014.69;5088446;28;19952;-80
2024/02/04 03:14:29;;;;;;;;;;;;;;;19.53;42.12;98017.53;5091117;28;19927;-81
2024/02/04 03:16:55;;;;;;;;;;;;;;;19.74;38.88;98048.03;5090395;28;19928;-80
2024/02/04 03:19:21;;;;;;;;;;;;;;;18.70;42.56;98070.16;5082995;28;20384;-79
2024/02/04 03:21:48;;;;;;;;;;;;;;;17.72;47.71;98052.16;5086895;28;20443;-80
2024/02/04 03:24:14;;;;;;;;;;;;;;;17.27;45.59;98061.84;5092401;28;19924;-78
2024/02/04 03:26:40;;;;;;;;;;;;;;;17.34;44.71;98055.53;5080607;28;19946;-78
2024/02/04 03:29:06;;;;;;;;;;;;;;;17.93;43.64;98068.88;5093357;28;20002;-78
2024/02/04 03:31:32;;;;;;;;;;;;;;;16.93;49.28;98048.56;5085147;28;19920;-78
2024/02/04 03:33:58;;;;;;;;;;;;;;;17.28;44.79;98057.09;5078941;28;19920;-78
2024/02/04 03:36:24;;;;;;;;;;;;;;;17.47;46.74;98044.91;5087201;28;19959;-79
2024/02/04 03:38:51;;;;;;;;;;;;;;;18.10;43.75;98042.31;5090958;28;20022;-79
2024/02/04 03:41:17;;;;;;;;;;;;;;;19.01;39.88;98040.72;5093419;28;19920;-80
2024/02/04 03:43:43;;;;;;;;;;;;;;;19.54;38.59;98038.59;5078477;28;19927;-80
2024/02/04 03:46:16;;;;;;;;;;;;;;;19.87;38.95;98034.44;5094365;28;19920;-80
2024/02/04 03:48:42;;;;;;;;;;;;;;;20.79;36.21;98040.16;5086225;28;19959;-80
2024/02/04 03:51:14;;;;;;;;;;;;;;;20.88;35.60;98034.09;5078669;28;20011;-79
2024/02/04 03:53:40;;;;;;;;;;;;;;;19.81;38.69;98031.28;5079949;28;19928;-80
2024/02/04 03:56:06;;;;;;;;;;;;;;;21.32;34.91;98029.25;5095331;28;19927;-80
2024/02/04 03:58:32;;;;;;;;;;;;;;;22.08;32.94;98022.28;5086355;28;19926;-80
2024/02/04 04:01:01;;;;;;;;;;;;;;;21.50;33.66;98011.47;5067012;28;20340;-80
2024/02/04 04:03:27;;;;;;;;;;;;;;;21.20;36.00;98024.22;5089234;28;19920;-80
2024/02/04 04:05:53;;;;;;;;;;;;;;;20.66;35.44;98025.91;5088158;28;19920;-80
2024/02/04 04:08:19;;;;;;;;;;;;;;;21.99;32.66;98028.41;5091724;28;19924;-80
2024/02/04 04:10:45;;;;;;;;;;;;;;;21.08;34.79;98030.31;5091930;28;20400;-80
2024/02/04 04:13:12;;;;;;;;;;;;;;;21.27;34.86;98024.13;5074870;28;20514;-80
2024/02/04 04:15:38;;;;;;;;;;;;;;;20.43;36.42;98039.66;5085651;28;20057;-80
2024/02/04 04:18:05;;;;;;;;;;;;;;;21.03;34.12;98030.72;5087118;28;20400;-80
2024/02/04 04:20:31;;;;;;;;;;;;;;;22.10;32.66;98030.28;5093934;28;19920;-80
2024/02/04 04:22:57;;;;;;;;;;;;;;;22.50;31.60;98029.22;5089281;28;19924;-80
2024/02/04 04:25:23;;;;;;;;;;;;;;;23.25;30.32;98040.72;5092450;28;19924;-80
2024/02/04 04:27:49;;;;;;;;;;;;;;;23.19;30.08;98034.03;5078801;28;19917;-80
2024/02/04 04:30:15;;;;;;;;;;;;;;;23.14;30.37;98052.13;5094350;28;19927;-80
2024/02/04 04:32:41;;;;;;;;;;;;;;;23.12;30.34;98034.97;5081655;28;19916;-80
2024/02/04 04:35:07;;;;;;;;;;;;;;;23.31;29.82;98039.00;5082418;28;19959;-80
2024/02/04 04:37:33;;;;;;;;;;;;;;;23.38;30.10;98045.28;5082697;28;19999;-80
2024/02/04 04:39:59;;;;;;;;;;;;;;;22.96;30.77;98043.25;5092717;28;19927;-80
2024/02/04 04:42:25;;;;;;;;;;;;;;;22.63;30.84;98033.84;5089198;28;19924;-80
2024/02/04 04:44:51;;;;;;;;;;;;;;;22.87;30.64;98039.44;5083878;28;19963;-80
2024/02/04 04:47:17;;;;;;;;;;;;;;;23.05;30.47;98028.69;5073634;28;19923;-80
2024/02/04 04:49:43;;;;;;;;;;;;;;;22.47;31.25;98035.69;5084119;28;19921;-80
2024/02/04 04:52:09;;;;;;;;;;;;;;;22.48;31.05;98026.84;5080743;28;19943;-79
2024/02/04 04:54:35;;;;;;;;;;;;;;;23.39;29.95;98020.84;5081691;28;19924;-80
2024/02/04 04:57:01;;;;;;;;;;;;;;;24.38;28.58;98024.31;5087752;28;19920;-80
2024/02/04 04:59:27;;;;;;;;;;;;;;;24.06;29.02;98025.06;5084495;28;20437;-79
2024/02/04 05:01:53;;;;;;;;;;;;;;;24.83;27.84;98022.41;5084104;28;19924;-80
2024/02/04 05:04:21;;;;;;;;;;;;;;;24.00;28.71;98018.34;5089171;28;19925;-80
2024/02/04 05:06:47;;;;;;;;;;;;;;;23.70;28.86;98008.19;5086757;28;20324;-79
2024/02/04 05:09:13;;;;;;;;;;;;;;;21.35;35.79;98010.88;5081579;28;20289;-80
2024/02/04 05:11:39;;;;;;;;;;;;;;;21.66;33.98;98006.06;5086546;28;20373;-79
2024/02/04 05:14:05;;;;;;;;;;;;;;;21.96;33.84;98011.69;5079996;28;20352;-79
2024/02/04 05:16:31;;;;;;;;;;;;;;;23.07;30.76;97998.25;5075719;28;20312;-80
2024/02/04 05:18:57;;;;;;;;;;;;;;;23.05;30.96;98012.69;5075342;28;19943;-78
2024/02/04 05:21:23;;;;;;;;;;;;;;;24.12;29.53;97998.06;5088652;28;20300;-79
2024/02/04 05:23:49;;;;;;;;;;;;;;;25.01;28.12;97997.44;5085598;28;19927;-78
2024/02/04 05:26:18;;;;;;;;;;;;;;;25.71;27.19;97999.50;5082847;28;19924;-80
2024/02/04 05:28:44;;;;;;;;;;;;;;;26.27;26.51;97992.16;5084973;28;20360;-80
2024/02/04 05:31:11;;;;;;;;;;;;;;;26.74;25.58;97997.81;5079808;28;20317;-80
2024/02/04 05:33:37;;;;;;;;;;;;;;;26.87;25.50;97997.81;5079754;28;19921;-78
2024/02/04 05:36:03;;;;;;;;;;;;;;;26.69;25.77;98009.66;5084807;28;19923;-80
2024/02/04 05:38:30;;;;;;;;;;;;;;;26.71;25.61;97996.72;5079443;28;19924;-80
2024/02/04 05:40:56;;;;;;;;;;;;;;;26.60;26.13;98001.13;5082413;28;19920;-80
2024/02/04 05:43:22;;;;;;;;;;;;;;;26.47;26.22;97998.31;5082181;28;19920;-80
2024/02/04 05:45:48;;;;;;;;;;;;;;;24.20;29.28;97999.47;5081313;28;20389;-81
2024/02/04 05:48:14;;;;;;;;;;;;;;;24.49;28.76;98000.38;5078482;28;20485;-80
2024/02/04 05:50:41;;;;;;;;;;;;;;;24.04;29.69;98008.63;5087121;28;19927;-79
2024/02/04 05:53:07;;;;;;;;;;;;;;;23.19;31.35;97992.03;5075616;28;19924;-79
2024/02/04 05:55:33;;;;;;;;;;;;;;;23.97;29.96;98005.19;5072133;28;19942;-78
2024/02/04 05:57:59;;;;;;;;;;;;;;;24.90;28.47;98001.78;5079840;28;19916;-79
2024/02/04 06:00:26;;;;;;;;;;;;;;;23.76;30.84;98016.88;5077605;28;19924;-79
2024/02/04 06:02:52;;;;;;;;;;;;;;;24.36;29.36;98012.72;5081606;28;19920;-79
2024/02/04 06:05:18;;;;;;;;;;;;;;;24.60;29.04;98006.50;5085384;28;20381;-80
2024/02/04 06:07:47;;;;;;;;;;;;;;;24.01;29.83;98031.16;5083437;28;19939;-80
2024/02/04 06:10:13;;;;;;;;;;;;;;;20.54;36.02;98040.38;5084180;28;20029;-81
2024/02/04 06:12:44;;;;;;;;;;;;;;;20.78;36.48;98040.56;5085305;28;20319;-81
2024/02/04 06:15:15;;;;;;;;;;;;;;;20.31;37.54;98008.69;5076592;28;19974;-81
2024/02/04 06:17:41;;;;;;;;;;;;;;;19.60;38.33;98064.03;5086823;28;19976;-80
2024/02/04 06:20:08;;;;;;;;;;;;;;;18.06;43.26;98074.88;5080948;28;19928;-80
2024/02/04 06:22:34;;;;;;;;;;;;;;;18.57;40.82;98089.25;5081217;28;20297;-81
2024/02/04 06:25:00;;;;;;;;;;;;;;;19.65;39.03;98061.59;5076713;28;20074;-81
2024/02/04 06:27:26;;;;;;;;;;;;;;;18.86;39.31;98067.78;5092626;28;19920;-81
2024/02/04 06:29:52;;;;;;;;;;;;;;;20.84;34.82;98041.72;5082020;28;19920;-79
2024/02/04 06:32:21;;;;;;;;;;;;;;;21.23;34.53;98023.38;5086205;28;19959;-79
2024/02/04 06:34:47;;;;;;;;;;;;;;;21.90;32.11;98021.75;5067349;28;19927;-80
2024/02/04 06:37:13;;;;;;;;;;;;;;;21.19;33.18;98027.44;5075186;28;19971;-80
2024/02/04 06:39:39;;;;;;;;;;;;;;;21.88;32.04;98026.97;5083665;28;19965;-80
2024/02/04 06:42:05;;;;;;;;;;;;;;;20.85;34.11;98029.34;5091700;28;19920;-80
2024/02/04 06:44:31;;;;;;;;;;;;;;;22.51;31.07;98028.81;5087695;28;20407;-79
2024/02/04 06:46:57;;;;;;;;;;;;;;;21.40;32.57;98046.69;5088901;28;20405;-81
2024/02/04 06:49:23;;;;;;;;;;;;;;;21.02;33.20;98057.09;5089763;28;20389;-81
2024/02/04 06:51:50;;;;;;;;;;;;;;;20.18;34.37;98058.56;5076925;28;20420;-81
2024/02/04 06:54:16;;;;;;;;;;;;;;;19.81;35.55;98048.00;5088766;28;20300;-80
2024/02/04 06:56:43;;;;;;;;;;;;;;;21.46;32.34;98044.25;5072241;28;20290;-81
2024/02/04 06:59:09;;;;;;;;;;;;;;;21.17;32.89;98036.19;5085589;28;19972;-81
2024/02/04 07:01:35;;;;;;;;;;;;;;;21.56;32.72;98032.97;5086881;28;19924;-79
2024/02/04 07:04:02;;;;;;;;;;;;;;;19.85;35.41;98036.84;5081852;28;19927;-79
2024/02/04 07:06:28;;;;;;;;;;;;;;;21.34;32.09;98037.22;5086023;28;19927;-79
2024/02/04 07:08:54;;;;;;;;;;;;;;;22.17;31.24;98049.75;5091845;28;19949;-80
2024/02/04 07:11:20;;;;;;;;;;;;;;;20.72;35.26;98068.13;5086283;28;19928;-80
2024/02/04 07:13:46;;;;;;;;;;;;;;;20.93;32.37;98059.56;5075487;28;20058;-80
2024/02/04 07:16:12;;;;;;;;;;;;;;;21.46;31.44;98033.09;5084994;28;19969;-80
2024/02/04 07:18:38;;;;;;;;;;;;;;;22.50;29.38;98046.00;5086858;28;19955;-80
2024/02/04 07:21:04;;;;;;;;;;;;;;;22.85;28.97;98039.06;5083341;28;20020;-80
2024/02/04 07:23:30;;;;;;;;;;;;;;;22.16;29.77;98029.38;5087295;28;20011;-80
2024/02/04 07:25:56;;;;;;;;;;;;;;;22.53;29.36;98039.56;5083394;28;19924;-80
2024/02/04 07:28:22;;;;;;;;;;;;;;;21.94;30.15;98033.66;5084874;28;19920;-80
2024/02/04 07:30:48;;;;;;;;;;;;;;;21.16;31.60;98036.63;5085083;28;20015;-80
2024/02/04 07:33:14;;;;;;;;;;;;;;;21.65;31.00;98040.84;5084587;28;20308;-80
2024/02/04 07:35:40;;;;;;;;;;;;;;;21.53;30.21;98047.75;5087349;28;19935;-80
2024/02/04 07:38:06;;;;;;;;;;;;;;;22.44;28.66;98040.13;5082129;28;19920;-80
2024/02/04 07:40:32;;;;;;;;;;;;;;;22.18;29.12;98049.31;5081013;28;19939;-81
2024/02/04 07:42:58;;;;;;;;;;;;;;;21.18;31.90;98054.56;5076021;28;19920;-82
2024/02/04 07:45:24;;;;;;;;;;;;;;;20.48;31.89;98055.16;5100779;27;19977;-79
2024/02/04 07:47:50;;;;;;;;;;;;;;;21.51;30.46;98052.19;5110141;28;19923;-81
2024/02/04 07:50:17;;;;;;;;;;;;;;;22.46;28.73;98062.88;5101511;27;19919;-82
2024/02/04 07:52:43;;;;;;;;;;;;;;;21.76;29.04;98047.88;5101381;28;19924;-80
2024/02/04 07:55:09;;;;;;;;;;;;;;;21.03;30.39;98049.47;5100085;27;19920;-80
2024/02/04 07:57:35;;;;;;;;;;;;;;;20.00;33.50;98039.13;5103736;27;20011;-81
2024/02/04 08:00:05;;;;;;;;;;;;;;;19.96;34.67;98065.44;5097904;27;20060;-81
2024/02/04 08:02:31;;;;;;;;;;;;;;;19.56;32.42;98052.91;5106857;27;19935;-80
2024/02/04 08:04:57;;;;;;;;;;;;;;;19.46;37.00;98053.75;5109123;27;20385;-81
2024/02/04 08:07:23;;;;;;;;;;;;;;;19.59;32.96;98054.88;5100915;28;19927;-81
2024/02/04 08:09:50;;;;;;;;;;;;;;;18.45;37.33;98066.56;5107749;28;20011;-80
2024/02/04 08:12:16;;;;;;;;;;;;;;;19.83;33.41;98069.91;5103471;28;19959;-81
2024/02/04 08:14:42;;;;;;;;;;;;;;;19.59;33.85;98074.38;5105497;28;20409;-80
2024/02/04 08:17:08;;;;;;;;;;;;;;;19.86;36.79;98071.88;5100358;28;19999;-81
2024/02/04 08:19:35;;;;;;;;;;;;;;;19.11;36.93;98073.31;5094886;27;20023;-81
2024/02/04 08:22:01;;;;;;;;;;;;;;;19.08;36.67;98085.22;5106507;27;19926;-80
2024/02/04 08:24:29;;;;;;;;;;;;;;;21.17;31.19;98080.88;5102759;27;19920;-80
2024/02/04 08:26:55;;;;;;;;;;;;;;;21.61;30.41;98071.59;5108272;28;19965;-79
2024/02/04 08:29:21;;;;;;;;;;;;;;;20.96;32.07;98091.41;5103676;28;19920;-81
2024/02/04 08:31:48;;;;;;;;;;;;;;;20.75;34.59;98100.78;5096142;28;19924;-81
2024/02/04 08:34:14;;;;;;;;;;;;;;;22.50;29.33;98087.97;5106997;28;19965;-82
2024/02/04 08:36:40;;;;;;;;;;;;;;;21.32;31.13;98098.28;5099330;28;19928;-81
2024/02/04 08:39:06;;;;;;;;;;;;;;;22.52;29.08;98096.75;5096585;28;20346;-82
2024/02/04 08:41:32;;;;;;;;;;;;;;;22.19;30.57;98087.25;5096362;28;20388;-81
2024/02/04 08:43:58;;;;;;;;;;;;;;;22.09;31.79;98087.38;5098763;28;19920;-81
2024/02/04 08:46:24;;;;;;;;;;;;;;;21.53;31.05;98094.47;5098000;28;19964;-81
2024/02/04 08:48:50;;;;;;;;;;;;;;;22.43;29.77;98080.47;5097656;28;20339;-81
2024/02/04 08:51:18;;;;;;;;;;;;;;;22.42;29.54;98083.72;5087916;28;19924;-81
2024/02/04 08:53:44;;;;;;;;;;;;;;;22.22;31.25;98086.41;5098542;28;19931;-80
2024/02/04 08:56:12;;;;;;;;;;;;;;;21.59;30.61;98079.59;5109135;28;20205;-81
2024/02/04 08:58:38;;;;;;;;;;;;;;;22.44;29.66;98082.09;5106071;28;19950;-81
2024/02/04 09:01:04;;;;;;;;;;;;;;;19.77;33.43;98088.22;5101552;28;20381;-80
2024/02/04 09:03:31;;;;;;;;;;;;;;;19.91;35.08;98085.38;5102967;27;19919;-80
2024/02/04 09:05:57;;;;;;;;;;;;;;;20.18;34.20;98094.00;5096965;28;19920;-80
2024/02/04 09:08:23;;;;;;;;;;;;;;;20.23;32.77;98093.59;5106609;27;20380;-81
2024/02/04 09:10:49;;;;;;;;;;;;;;;21.16;31.29;98101.66;5110207;27;19927;-80
2024/02/04 09:13:15;;;;;;;;;;;;;;;22.13;30.21;98090.91;5098241;28;19924;-81
2024/02/04 09:15:42;;;;;;;;;;;;;;;22.81;29.41;98085.91;5094027;28;20000;-80
2024/02/04 09:18:08;;;;;;;;;;;;;;;22.92;29.91;98089.34;5094525;28;20387;-80
2024/02/04 09:20:34;;;;;;;;;;;;;;;22.28;30.22;98092.31;5106452;27;19919;-80
2024/02/04 09:23:00;;;;;;;;;;;;;;;22.81;29.53;98099.91;5125595;27;19972;-80
2024/02/04 09:25:26;;;;;;;;;;;;;;;22.00;30.43;98105.50;5087775;28;19932;-81
2024/02/04 09:27:52;;;;;;;;;;;;;;;21.51;30.63;98122.81;5097185;27;19920;-80
2024/02/04 09:30:18;;;;;;;;;;;;;;;21.77;31.09;98110.16;5108673;27;19927;-80
2024/02/04 09:32:44;;;;;;;;;;;;;;;22.43;30.05;98113.25;5083460;27;20312;-80
2024/02/04 09:35:10;;;;;;;;;;;;;;;22.34;29.67;98119.38;5106620;27;20428;-80
2024/02/04 09:37:36;;;;;;;;;;;;;;;22.37;30.47;98110.16;5101700;28;20012;-80
2024/02/04 09:40:04;;;;;;;;;;;;;;;22.15;29.63;98117.25;5108194;27;19947;-80
2024/02/04 09:42:31;;;;;;;;;;;;;;;21.63;31.12;98125.09;5102750;28;19961;-81
2024/02/04 09:44:57;;;;;;;;;;;;;;;23.43;28.85;98133.69;5102797;28;19955;-80
2024/02/04 09:47:23;;;;;;;;;;;;;;;23.65;27.92;98120.03;5097387;28;20088;-80
2024/02/04 09:49:52;;;;;;;;;;;;;;;24.50;27.20;98130.28;5099309;28;19920;-80
2024/02/04 09:52:20;;;;;;;;;;;;;;;25.07;26.26;98127.72;5097976;28;20366;-80
2024/02/04 09:54:49;;;;;;;;;;;;;;;24.39;26.94;98130.50;5101146;28;20001;-80
2024/02/04 09:57:16;;;;;;;;;;;;;;;24.53;27.28;98126.56;5101718;27;19928;-80
2024/02/04 09:59:43;;;;;;;;;;;;;;;24.14;28.50;98115.44;5100923;27;19923;-81
2024/02/04 10:02:10;;;;;;;;;;;;;;;23.58;28.92;98114.56;5104187;27;20257;-80
2024/02/04 10:04:36;;;;;;;;;;;;;;;23.70;29.04;98108.31;5103646;27;20334;-80
2024/02/04 10:07:02;;;;;;;;;;;;;;;25.70;27.02;98093.53;5091824;28;20340;-81
2024/02/04 10:09:29;;;;;;;;;;;;;;;25.45;26.43;98088.59;5104393;27;19985;-80
2024/02/04 10:11:56;;;;;;;;;;;;;;;25.69;26.59;98091.97;5105272;27;19928;-80
2024/02/04 10:14:23;;;;;;;;;;;;;;;25.86;26.20;98087.84;5105658;27;19916;-80
2024/02/04 10:16:50;;;;;;;;;;;;;;;24.87;27.28;98087.69;5110178;27;19920;-80
2024/02/04 10:19:16;;;;;;;;;;;;;;;24.55;27.77;98073.63;5107307;28;20046;-80
2024/02/04 10:21:42;;;;;;;;;;;;;;;24.03;28.38;98071.56;5101880;27;19962;-80
2024/02/04 10:24:08;;;;;;;;;;;;;;;23.59;31.16;98066.50;5090113;28;19920;-80
2024/02/04 10:26:36;;;;;;;;;;;;;;;24.64;28.05;98066.16;5109065;28;19924;-79
2024/02/04 10:29:03;;;;;;;;;;;;;;;23.53;29.61;98079.41;5104970;28;19916;-80
2024/02/04 10:31:29;;;;;;;;;;;;;;;23.61;29.61;98064.06;5101035;28;19955;-80
2024/02/04 10:33:56;;;;;;;;;;;;;;;24.37;28.77;98060.00;5103965;27;19956;-80
2024/02/04 10:36:22;;;;;;;;;;;;;;;24.22;28.98;98049.53;5096772;27;19931;-80
2024/02/04 10:38:48;;;;;;;;;;;;;;;24.74;28.21;98034.22;5106782;27;19920;-80
2024/02/04 10:41:15;;;;;;;;;;;;;;;24.82;29.10;98034.06;5102181;27;19928;-79
2024/02/04 10:43:42;;;;;;;;;;;;;;;24.65;28.04;98022.03;5102742;28;20800;-80
2024/02/04 10:46:18;;;;;;;;;;;;;;;24.55;27.17;98014.69;5102579;27;19919;-80
2024/02/04 10:48:48;;;;;;;;;;;;;;;22.98;29.73;98014.81;5104280;27;19932;-80
2024/02/04 10:51:14;;;;;;;;;;;;;;;22.13;30.95;98021.00;5098435;27;20006;-80
2024/02/04 10:53:44;;;;;;;;;;;;;;;22.58;31.24;98025.91;5109602;28;19921;-80
2024/02/04 10:56:18;;;;;;;;;;;;;;;21.65;34.68;98019.28;5105984;28;19923;-80
2024/02/04 10:58:44;;;;;;;;;;;;;;;22.16;32.38;98011.78;5101921;27;19928;-80
2024/02/04 11:01:11;;;;;;;;;;;;;;;22.33;32.07;98003.13;5104936;28;20316;-80
2024/02/04 11:03:38;;;;;;;;;;;;;;;21.51;35.77;98008.28;5109353;28;19924;-80
2024/02/04 11:06:04;;;;;;;;;;;;;;;20.60;35.34;98012.84;5106937;27;19959;-80
2024/02/04 11:08:30;;;;;;;;;;;;;;;22.78;31.68;97986.78;5091123;28;20426;-81
2024/02/04 11:10:57;;;;;;;;;;;;;;;23.46;30.30;97977.88;5101705;28;19920;-80
2024/02/04 11:13:23;;;;;;;;;;;;;;;24.32;30.56;97979.13;5106313;27;19923;-80
2024/02/04 11:15:50;;;;;;;;;;;;;;;23.59;30.48;97964.81;5091660;28;20014;-81
2024/02/04 11:18:35;;;;;;;;;;;;;;;22.99;31.08;97966.78;5093508;28;19935;-81
2024/02/04 11:21:20;;;;;;;;;;;;;;;23.92;30.59;97984.06;5105286;27;19926;-81
2024/02/04 11:23:55;;;;;;;;;;;;;;;21.92;33.57;97975.41;5107884;27;19924;-81
2024/02/04 11:26:23;;;;;;;;;;;;;;;22.25;33.26;97961.69;5083916;27;19962;-81
2024/02/04 11:28:49;;;;;;;;;;;;;;;23.63;30.76;97945.88;5105048;27;19927;-81
2024/02/04 11:31:17;;;;;;;;;;;;;;;22.43;33.47;97949.00;5102903;27;19981;-80
2024/02/04 11:33:43;;;;;;;;;;;;;;;23.65;31.90;97949.03;5106963;27;20600;-80
2024/02/04 11:36:13;;;;;;;;;;;;;;;24.70;29.97;97951.31;5107614;27;19927;-81
2024/02/04 11:38:40;;;;;;;;;;;;;;;22.18;33.60;97936.66;5105694;27;20392;-81
2024/02/04 11:41:06;;;;;;;;;;;;;;;21.62;34.41;97949.47;5105111;27;19945;-81
2024/02/04 11:43:33;;;;;;;;;;;;;;;21.73;36.77;97938.91;5095503;28;19920;-81
2024/02/04 11:46:00;;;;;;;;;;;;;;;20.68;40.41;97920.28;5088094;28;19927;-81
2024/02/04 11:48:33;;;;;;;;;;;;;;;21.48;36.71;97913.34;5084513;28;19977;-81
2024/02/04 11:51:02;;;;;;;;;;;;;;;22.43;33.36;97914.63;5081908;28;19920;-81
2024/02/04 11:53:31;;;;;;;;;;;;;;;22.82;34.06;97911.16;5085152;28;19916;-81
2024/02/04 11:56:00;;;;;;;;;;;;;;;21.95;33.67;97912.25;5079384;28;19924;-82
2024/02/04 11:58:27;;;;;;;;;;;;;;;22.38;33.42;97909.56;5080353;28;20456;-82
2024/02/04 12:00:57;;;;;;;;;;;;;;;22.54;33.20;97902.03;5086852;28;19930;-82
2024/02/04 12:03:33;;;;;;;;;;;;;;;21.88;35.12;97887.22;5087299;28;19924;-81
2024/02/04 12:05:59;;;;;;;;;;;;;;;22.65;32.41;97897.06;5085308;28;19930;-82
2024/02/04 12:08:27;;;;;;;;;;;;;;;22.96;33.43;97896.88;5080570;28;20281;-82
2024/02/04 12:10:53;;;;;;;;;;;;;;;23.76;30.35;97868.28;5085648;28;19928;-81
2024/02/04 12:13:20;;;;;;;;;;;;;;;22.88;31.70;97881.44;5079684;28;19920;-79
2024/02/04 12:15:46;;;;;;;;;;;;;;;24.07;29.47;97875.16;5083722;28;19921;-79
2024/02/04 12:18:14;;;;;;;;;;;;;;;24.12;29.69;97863.41;5067909;28;20274;-79
2024/02/04 12:20:40;;;;;;;;;;;;;;;25.12;28.34;97851.84;5085700;28;20015;-79
2024/02/04 12:23:07;;;;;;;;;;;;;;;24.76;28.87;97844.88;5091963;28;20023;-81
2024/02/04 12:25:33;;;;;;;;;;;;;;;25.88;27.68;97840.66;5083034;28;19924;-80
2024/02/04 12:28:02;;;;;;;;;;;;;;;24.92;28.60;97823.16;5080462;28;20018;-81
2024/02/04 12:30:28;;;;;;;;;;;;;;;25.02;28.88;97821.28;5076566;28;20369;-81
2024/02/04 12:33:05;;;;;;;;;;;;;;;26.20;27.48;97817.88;5078328;28;20003;-81
2024/02/04 12:35:31;;;;;;;;;;;;;;;25.84;27.57;97814.66;5076387;28;19935;-82
2024/02/04 12:37:58;;;;;;;;;;;;;;;26.05;27.75;97813.94;5076338;28;19920;-81
2024/02/04 12:40:27;;;;;;;;;;;;;;;26.66;26.72;97807.78;5086190;28;20393;-81
2024/02/04 12:42:57;;;;;;;;;;;;;;;27.30;25.97;97803.34;5086324;28;20468;-81
2024/02/04 12:45:24;;;;;;;;;;;;;;;26.92;26.47;97794.38;5097831;28;19928;-81